Terminal Aerodrome Forecast
Issued by NWS

Home | Current Version | Previous Version | Text Only | Print | Product List | Glossary On
Versions: 1 2 3 4 5 6 7 8 9 10 11 12 13 14 15
000
FTUS45 KBYZ 310009 AAA
TAFLVM
TAF AMD
KLVM 310009Z 3100/3124 27012G22KT P6SM VCTS SCT100CB
      TEMPO 3100/3101 24025G40KT
     FM310500 27010KT P6SM FEW100=

USA.gov is the U.S. government's official web portal to all federal, state and local government web resources and services.